Terminal Aerodrome Forecast
Issued by NWS Wilmington, OH

Current Version | Previous Version | Graphics & Text | Print | Product List | Glossary On
Versions: 1 2 3 4 5 6 7 8 9 10 11 12 13 14 15 16 17 18
000
FTUS41 KILN 151740
TAFDAY
TAF
KDAY 151740Z 1518/1618 20015KT 5SM -SHRA OVC060
     FM152100 22015KT 5SM -SHRA OVC009
     FM152300 23012KT 5SM BR VCSH OVC005
     FM160400 27013KT P6SM BKN015=

USA.gov is the U.S. government's official web portal to all federal, state and local government web resources and services.